Time;durP1;ratioP1;P1;durP2;ratioP2;P2;SDS_P1;SDS_P2;PMS_P1;PMS_P2;Temp;Humidity;BMP_temperature;BMP_pressure;BME280_temperature;BME280_humidity;BME280_pressure;Samples;Min_cycle;Max_cycle;Signal;HPM_P1;HPM_P2
2021/12/23 00:00:54;;;;;;;21.60;20.40;;;;;;;;;;5091804;28;20194;-76
2021/12/23 00:03:22;;;;;;;19.67;18.67;;;;;;;;;;5092106;28;20280;-76
2021/12/23 00:05:49;;;;;;;22.43;21.23;;;;;;;;;;5091964;28;20254;-75
2021/12/23 00:08:16;;;;;;;21.67;20.37;;;;;;;;;;5091728;28;20679;-76
2021/12/23 00:10:43;;;;;;;21.47;20.37;;;;;;;;;;5091684;28;20292;-76
2021/12/23 00:13:10;;;;;;;19.57;18.57;;;;;;;;;;5091912;28;20255;-74
2021/12/23 00:15:49;;;;;;;20.20;19.20;;;;;;;;;;5091939;28;20225;-74
2021/12/23 00:18:30;;;;;;;19.83;18.83;;;;;;;;;;5091925;28;20193;-75
2021/12/23 00:23:44;;;;;;;20.63;19.63;;;;;;;;;;5091553;28;20311;-74
2021/12/23 00:26:10;;;;;;;20.33;19.23;;;;;;;;;;5091765;28;20233;-75
2021/12/23 00:28:37;;;;;;;21.33;20.23;;;;;;;;;;5091474;28;20224;-74
2021/12/23 00:31:05;;;;;;;18.63;17.63;;;;;;;;;;5094303;28;20739;-75
2021/12/23 00:33:33;;;;;;;19.10;18.20;;;;;;;;;;5095153;28;20642;-75
2021/12/23 00:36:03;;;;;;;19.30;18.40;;;;;;;;;;5095450;28;20197;-75
2021/12/23 00:38:33;;;;;;;20.43;18.77;;;;;;;;;;5096494;28;20192;-73
2021/12/23 00:41:02;;;;;;;18.37;17.57;;;;;;;;;;5095047;28;20581;-74
2021/12/23 00:43:29;;;;;;;18.90;18.00;;;;;;;;;;5094940;28;20194;-74
2021/12/23 00:45:56;;;;;;;17.37;16.47;;;;;;;;;;5095175;28;20265;-73
2021/12/23 00:48:23;;;;;;;19.37;17.90;;;;;;;;;;5095192;28;20243;-73
2021/12/23 00:50:50;;;;;;;18.60;17.70;;;;;;;;;;5094796;28;20197;-74
2021/12/23 00:53:20;;;;;;;19.67;18.67;;;;;;;;;;5094823;28;20228;-73
2021/12/23 00:55:49;;;;;;;19.03;18.03;;;;;;;;;;5095028;28;20271;-75
2021/12/23 00:58:16;;;;;;;19.80;18.80;;;;;;;;;;5094969;28;20224;-74
2021/12/23 01:00:43;;;;;;;19.50;18.50;;;;;;;;;;5094952;28;20197;-73
2021/12/23 01:03:10;;;;;;;20.13;19.13;;;;;;;;;;5094583;28;20237;-73
2021/12/23 01:05:37;;;;;;;19.67;18.67;;;;;;;;;;5094504;28;20688;-73
2021/12/23 01:08:04;;;;;;;20.30;19.30;;;;;;;;;;5094764;28;20687;-73
2021/12/23 01:10:32;;;;;;;20.93;19.83;;;;;;;;;;5094483;28;20251;-73
2021/12/23 01:13:02;;;;;;;21.60;20.40;;;;;;;;;;5094378;28;20280;-75
2021/12/23 01:15:57;;;;;;;20.83;19.73;;;;;;;;;;5094704;28;20194;-74
2021/12/23 01:18:24;;;;;;;19.50;18.50;;;;;;;;;;5094371;28;20285;-75
2021/12/23 01:20:52;;;;;;;21.63;19.97;;;;;;;;;;5094640;28;20243;-73
2021/12/23 01:23:20;;;;;;;19.30;18.30;;;;;;;;;;5094030;28;20226;-75
2021/12/23 01:25:48;;;;;;;21.50;20.27;;;;;;;;;;5094364;28;20196;-73
2021/12/23 01:28:15;;;;;;;20.47;19.47;;;;;;;;;;5094358;28;20198;-74
2021/12/23 01:30:42;;;;;;;18.53;17.73;;;;;;;;;;5094413;28;20232;-74
2021/12/23 01:33:09;;;;;;;19.03;18.13;;;;;;;;;;5094079;28;20288;-75
2021/12/23 01:35:36;;;;;;;19.00;18.10;;;;;;;;;;5093960;28;20659;-74
2021/12/23 01:38:03;;;;;;;18.20;17.30;;;;;;;;;;5095091;28;20247;-74
2021/12/23 01:40:30;;;;;;;18.53;17.63;;;;;;;;;;5094169;28;20244;-74
2021/12/23 01:42:59;;;;;;;20.17;19.17;;;;;;;;;;5093868;28;20228;-74
2021/12/23 01:45:26;;;;;;;19.80;18.80;;;;;;;;;;5093815;28;20194;-74
2021/12/23 01:47:53;;;;;;;19.33;18.33;;;;;;;;;;5094000;28;20647;-75
2021/12/23 01:50:24;;;;;;;18.67;17.70;;;;;;;;;;5094006;28;20232;-74
2021/12/23 01:52:50;;;;;;;18.67;17.77;;;;;;;;;;5094002;28;20247;-74
2021/12/23 01:55:17;;;;;;;19.73;18.73;;;;;;;;;;5093985;28;20293;-73
2021/12/23 01:57:44;;;;;;;20.20;19.10;;;;;;;;;;5093499;28;20288;-75
2021/12/23 02:00:14;;;;;;;19.33;18.33;;;;;;;;;;5093921;28;20198;-75
2021/12/23 02:02:41;;;;;;;17.87;17.07;;;;;;;;;;5093539;28;20194;-74
2021/12/23 02:05:09;;;;;;;18.80;17.90;;;;;;;;;;5093365;28;20225;-73
2021/12/23 02:07:36;;;;;;;23.23;22.10;;;;;;;;;;5093326;28;20288;-74
2021/12/23 02:10:03;;;;;;;18.60;17.80;;;;;;;;;;5093327;28;20679;-74
2021/12/23 02:12:29;;;;;;;19.23;18.33;;;;;;;;;;5093640;28;20614;-75
2021/12/23 02:14:56;;;;;;;20.03;19.03;;;;;;;;;;5093557;28;20229;-73
2021/12/23 02:17:24;;;;;;;19.13;18.17;;;;;;;;;;5093480;28;20652;-74
2021/12/23 02:19:54;;;;;;;17.33;16.73;;;;;;;;;;5093152;28;20255;-74
2021/12/23 02:22:21;;;;;;;18.67;17.87;;;;;;;;;;5093069;28;20261;-74
2021/12/23 02:24:48;;;;;;;17.17;16.47;;;;;;;;;;5093051;28;20281;-73
2021/12/23 02:27:14;;;;;;;18.93;17.87;;;;;;;;;;5092933;28;20229;-75
2021/12/23 02:29:41;;;;;;;20.47;19.57;;;;;;;;;;5093294;28;20312;-75
2021/12/23 02:32:08;;;;;;;17.83;17.03;;;;;;;;;;5092933;28;20285;-75
2021/12/23 02:34:35;;;;;;;18.77;17.97;;;;;;;;;;5092925;28;20229;-75
2021/12/23 02:37:03;;;;;;;19.83;18.93;;;;;;;;;;5093192;28;20277;-75
2021/12/23 02:39:30;;;;;;;22.90;21.80;;;;;;;;;;5092770;28;20198;-74
2021/12/23 02:41:58;;;;;;;23.03;22.03;;;;;;;;;;5093086;28;20194;-75
2021/12/23 02:44:25;;;;;;;21.87;20.87;;;;;;;;;;5093074;28;20223;-75
2021/12/23 02:46:51;;;;;;;23.33;22.23;;;;;;;;;;5092683;28;20710;-74
2021/12/23 02:49:19;;;;;;;22.47;21.27;;;;;;;;;;5093038;28;20272;-75
2021/12/23 02:51:46;;;;;;;22.27;21.23;;;;;;;;;;5092903;28;20237;-75
2021/12/23 02:54:14;;;;;;;23.37;22.27;;;;;;;;;;5092194;28;20285;-75
2021/12/23 02:56:40;;;;;;;21.53;20.53;;;;;;;;;;5092906;28;20254;-76
2021/12/23 02:59:07;;;;;;;23.37;22.27;;;;;;;;;;5092508;28;20579;-75
2021/12/23 03:01:34;;;;;;;21.80;20.80;;;;;;;;;;5092828;28;20280;-75
2021/12/23 03:04:01;;;;;;;22.90;21.80;;;;;;;;;;5092707;28;20193;-75
2021/12/23 03:06:28;;;;;;;22.70;21.60;;;;;;;;;;5092329;28;20656;-75
2021/12/23 03:08:56;;;;;;;23.03;21.93;;;;;;;;;;5092317;28;20284;-75
2021/12/23 03:11:25;;;;;;;22.63;21.43;;;;;;;;;;5092290;28;20229;-75
2021/12/23 03:13:52;;;;;;;23.10;22.00;;;;;;;;;;5092577;28;20234;-74
2021/12/23 03:16:20;;;;;;;23.17;22.07;;;;;;;;;;5092219;28;20698;-75
2021/12/23 03:18:47;;;;;;;22.97;21.87;;;;;;;;;;5092193;28;20284;-75
2021/12/23 03:21:14;;;;;;;22.70;21.60;;;;;;;;;;5092427;28;20263;-75
2021/12/23 03:23:41;;;;;;;23.70;22.50;;;;;;;;;;5092050;28;20309;-76
2021/12/23 03:26:07;;;;;;;23.97;22.77;;;;;;;;;;5092133;28;20193;-75
2021/12/23 03:28:35;;;;;;;22.40;21.30;;;;;;;;;;5092046;28;20316;-75
2021/12/23 03:31:03;;;;;;;24.30;23.00;;;;;;;;;;5092165;28;20289;-75
2021/12/23 03:33:30;;;;;;;24.07;22.87;;;;;;;;;;5092364;28;20197;-74
2021/12/23 03:35:57;;;;;;;23.80;22.60;;;;;;;;;;5092005;28;20225;-74
2021/12/23 03:38:25;;;;;;;24.57;23.37;;;;;;;;;;5092254;28;20197;-74
2021/12/23 03:40:52;;;;;;;25.07;23.77;;;;;;;;;;5092271;28;20221;-73
2021/12/23 03:43:19;;;;;;;24.70;23.33;;;;;;;;;;5091981;28;20703;-74
2021/12/23 03:45:48;;;;;;;24.70;23.50;;;;;;;;;;5091928;28;20285;-74
2021/12/23 03:48:15;;;;;;;24.87;23.67;;;;;;;;;;5092978;28;20634;-74
2021/12/23 03:50:42;;;;;;;23.37;22.27;;;;;;;;;;5092117;28;20244;-74
2021/12/23 03:53:09;;;;;;;25.07;23.87;;;;;;;;;;5091906;28;20189;-73
2021/12/23 03:55:36;;;;;;;22.80;21.80;;;;;;;;;;5092163;28;20277;-75
2021/12/23 03:58:03;;;;;;;23.07;21.97;;;;;;;;;;5092150;28;20258;-74
2021/12/23 04:00:30;;;;;;;23.70;22.50;;;;;;;;;;5092130;28;20255;-74
2021/12/23 04:02:58;;;;;;;24.00;22.80;;;;;;;;;;5091720;28;20237;-74
2021/12/23 04:05:25;;;;;;;24.43;23.23;;;;;;;;;;5094065;28;20342;-74
2021/12/23 04:07:52;;;;;;;24.47;23.27;;;;;;;;;;5095937;28;20229;-74
2021/12/23 04:10:21;;;;;;;26.00;24.40;;;;;;;;;;5095621;28;20190;-74
2021/12/23 04:12:48;;;;;;;22.67;21.57;;;;;;;;;;5095583;28;20194;-74
2021/12/23 04:15:15;;;;;;;22.83;21.70;;;;;;;;;;5095799;28;20316;-73
2021/12/23 04:17:43;;;;;;;23.90;22.77;;;;;;;;;;5096615;28;20255;-74
2021/12/23 04:20:17;;;;;;;22.33;21.23;;;;;;;;;;5095382;28;20574;-74
2021/12/23 04:22:44;;;;;;;20.97;20.03;;;;;;;;;;5095244;28;20271;-74
2021/12/23 04:25:11;;;;;;;22.70;21.70;;;;;;;;;;5095301;28;20683;-74
2021/12/23 04:27:38;;;;;;;23.87;22.67;;;;;;;;;;5095180;28;20286;-74
2021/12/23 04:30:06;;;;;;;22.27;21.27;;;;;;;;;;5095343;28;20276;-74
2021/12/23 04:32:33;;;;;;;21.73;20.77;;;;;;;;;;5095157;28;20280;-74
2021/12/23 04:35:00;;;;;;;20.60;19.70;;;;;;;;;;5095464;28;20229;-74
2021/12/23 04:37:28;;;;;;;19.17;18.37;;;;;;;;;;5095363;28;20206;-74
2021/12/23 04:39:55;;;;;;;19.97;19.17;;;;;;;;;;5095115;28;20731;-74
2021/12/23 04:42:21;;;;;;;19.30;18.50;;;;;;;;;;5095071;28;20190;-74
2021/12/23 04:44:48;;;;;;;19.50;18.70;;;;;;;;;;5095025;28;20197;-74
2021/12/23 04:47:15;;;;;;;21.10;19.67;;;;;;;;;;5094879;28;20250;-74
2021/12/23 04:49:42;;;;;;;20.97;20.07;;;;;;;;;;5095174;28;20663;-74
2021/12/23 04:52:08;;;;;;;21.77;20.67;;;;;;;;;;5095194;28;20189;-74
2021/12/23 04:54:37;;;;;;;20.43;19.53;;;;;;;;;;5095053;28;20205;-74
2021/12/23 04:57:03;;;;;;;20.00;19.17;;;;;;;;;;5094725;28;20236;-74
2021/12/23 04:59:30;;;;;;;19.60;18.80;;;;;;;;;;5094667;28;20573;-74
2021/12/23 05:01:57;;;;;;;19.07;18.27;;;;;;;;;;5094884;28;20229;-74
2021/12/23 05:04:24;;;;;;;18.50;17.70;;;;;;;;;;5094578;28;20233;-74
2021/12/23 05:06:50;;;;;;;18.13;17.43;;;;;;;;;;5094714;28;20255;-74
2021/12/23 05:09:17;;;;;;;17.23;16.53;;;;;;;;;;5094768;28;20278;-74
2021/12/23 05:11:45;;;;;;;17.90;17.20;;;;;;;;;;5094447;28;20280;-74
2021/12/23 05:14:12;;;;;;;17.43;16.73;;;;;;;;;;5094401;28;20236;-74
2021/12/23 05:16:38;;;;;;;18.30;17.50;;;;;;;;;;5094308;28;20190;-74
2021/12/23 05:19:05;;;;;;;18.37;17.57;;;;;;;;;;5094275;28;20288;-74
2021/12/23 05:21:32;;;;;;;16.97;16.27;;;;;;;;;;5094582;28;20198;-74
2021/12/23 05:23:58;;;;;;;21.87;20.87;;;;;;;;;;5094067;28;20261;-74
2021/12/23 05:26:25;;;;;;;21.57;20.57;;;;;;;;;;5094518;28;20278;-74
2021/12/23 05:28:53;;;;;;;20.73;19.83;;;;;;;;;;5094385;28;20317;-74
2021/12/23 05:31:20;;;;;;;18.30;17.20;;;;;;;;;;5094051;28;20236;-74
2021/12/23 05:33:47;;;;;;;16.37;15.53;;;;;;;;;;5094154;28;20198;-74
2021/12/23 05:36:13;;;;;;;19.37;18.23;;;;;;;;;;5093988;28;20190;-74
2021/12/23 05:38:40;;;;;;;17.37;16.67;;;;;;;;;;5094170;28;20190;-73
2021/12/23 05:41:07;;;;;;;18.23;17.53;;;;;;;;;;5094184;28;20224;-74
2021/12/23 05:43:33;;;;;;;19.53;18.53;;;;;;;;;;5093821;28;20194;-74
2021/12/23 05:46:01;;;;;;;17.80;17.00;;;;;;;;;;5093790;28;20683;-74
2021/12/23 05:48:28;;;;;;;19.63;18.47;;;;;;;;;;5093897;28;20229;-73
2021/12/23 05:50:55;;;;;;;17.40;16.70;;;;;;;;;;5093699;28;20236;-74
2021/12/23 05:53:22;;;;;;;19.47;18.37;;;;;;;;;;5093656;28;20285;-74
2021/12/23 05:55:48;;;;;;;16.93;16.23;;;;;;;;;;5094399;28;20198;-74
2021/12/23 05:58:15;;;;;;;17.43;16.73;;;;;;;;;;5093868;28;20194;-74
2021/12/23 06:00:42;;;;;;;16.97;16.27;;;;;;;;;;5093442;28;20226;-74
2021/12/23 06:03:10;;;;;;;16.70;16.00;;;;;;;;;;5093773;28;20273;-74
2021/12/23 06:05:36;;;;;;;16.90;16.20;;;;;;;;;;5093426;28;20251;-74
2021/12/23 06:08:03;;;;;;;18.73;17.73;;;;;;;;;;5093336;28;20264;-74
2021/12/23 06:10:30;;;;;;;16.47;15.80;;;;;;;;;;5093329;28;20243;-71
2021/12/23 06:12:57;;;;;;;18.50;17.70;;;;;;;;;;5093552;28;20281;-71
2021/12/23 06:15:23;;;;;;;18.63;17.83;;;;;;;;;;5093280;28;20197;-71
2021/12/23 06:17:50;;;;;;;17.60;16.90;;;;;;;;;;5093534;28;20631;-71
2021/12/23 06:20:18;;;;;;;17.37;16.67;;;;;;;;;;5093445;28;20259;-71
2021/12/23 06:22:45;;;;;;;19.47;18.53;;;;;;;;;;5092918;28;20265;-71
2021/12/23 06:25:12;;;;;;;17.53;16.80;;;;;;;;;;5093190;28;20193;-71
2021/12/23 06:27:40;;;;;;;17.47;16.73;;;;;;;;;;5092254;28;20312;-71
2021/12/23 06:30:14;;;;;;;18.60;17.77;;;;;;;;;;5093565;28;20704;-71
2021/12/23 06:32:41;;;;;;;20.00;19.00;;;;;;;;;;5093230;28;20189;-71
2021/12/23 06:35:09;;;;;;;18.90;18.10;;;;;;;;;;5092855;28;20189;-71
2021/12/23 06:37:37;;;;;;;19.17;18.47;;;;;;;;;;5093148;28;20683;-71
2021/12/23 06:40:05;;;;;;;19.30;18.60;;;;;;;;;;5093127;28;20247;-71
2021/12/23 06:42:32;;;;;;;18.93;17.93;;;;;;;;;;5092699;28;20229;-71
2021/12/23 06:44:58;;;;;;;24.87;23.60;;;;;;;;;;5092772;28;20667;-71
2021/12/23 06:47:25;;;;;;;21.13;20.13;;;;;;;;;;5092890;28;20229;-71
2021/12/23 06:49:52;;;;;;;20.50;19.60;;;;;;;;;;5092656;28;20232;-71
2021/12/23 06:52:18;;;;;;;20.17;19.27;;;;;;;;;;5092932;28;20641;-71
2021/12/23 06:54:48;;;;;;;21.77;20.77;;;;;;;;;;5092818;28;20227;-71
2021/12/23 06:57:15;;;;;;;20.60;19.70;;;;;;;;;;5092493;28;20580;-71
2021/12/23 06:59:42;;;;;;;22.20;21.00;;;;;;;;;;5092431;28;20575;-71
2021/12/23 07:02:09;;;;;;;22.20;21.07;;;;;;;;;;5092450;28;20236;-71
2021/12/23 07:04:36;;;;;;;17.73;16.83;;;;;;;;;;5092714;28;20194;-71
2021/12/23 07:07:09;;;;;;;17.13;16.23;;;;;;;;;;5092659;28;20198;-71
2021/12/23 07:09:36;;;;;;;16.97;16.17;;;;;;;;;;5092619;28;20218;-71
2021/12/23 07:12:06;;;;;;;17.30;16.40;;;;;;;;;;5092827;28;20197;-71
2021/12/23 07:14:32;;;;;;;18.07;17.27;;;;;;;;;;5092540;28;20221;-72
2021/12/23 07:16:59;;;;;;;19.10;18.30;;;;;;;;;;5092533;28;20273;-72
2021/12/23 07:19:26;;;;;;;24.20;22.80;;;;;;;;;;5092203;28;20232;-71
2021/12/23 07:21:53;;;;;;;23.20;21.90;;;;;;;;;;5092303;28;20225;-71
2021/12/23 07:24:22;;;;;;;24.30;22.97;;;;;;;;;;5092115;28;20193;-71
2021/12/23 07:26:49;;;;;;;24.43;22.70;;;;;;;;;;5092122;28;20747;-71
2021/12/23 07:29:17;;;;;;;23.50;22.30;;;;;;;;;;5091973;28;20746;-71
2021/12/23 07:31:44;;;;;;;27.23;25.73;;;;;;;;;;5092053;28;20742;-71
2021/12/23 07:34:10;;;;;;;27.40;25.17;;;;;;;;;;5092340;28;20582;-71
2021/12/23 07:36:37;;;;;;;28.47;26.70;;;;;;;;;;5092129;28;20284;-71
2021/12/23 07:39:06;;;;;;;30.73;26.43;;;;;;;;;;5093471;28;20251;-71
2021/12/23 07:41:33;;;;;;;24.37;23.07;;;;;;;;;;5096197;28;20204;-71
2021/12/23 07:44:04;;;;;;;23.30;22.10;;;;;;;;;;5096530;28;20244;-72
2021/12/23 07:46:33;;;;;;;22.43;21.23;;;;;;;;;;5096110;28;20218;-72
2021/12/23 07:48:59;;;;;;;22.43;21.23;;;;;;;;;;5096330;28;20313;-72
2021/12/23 07:51:26;;;;;;;22.40;21.20;;;;;;;;;;5095989;28;20612;-73
2021/12/23 07:53:54;;;;;;;21.33;20.23;;;;;;;;;;5096238;28;20189;-71
2021/12/23 07:56:21;;;;;;;23.37;22.10;;;;;;;;;;5095911;28;20198;-73
2021/12/23 07:58:47;;;;;;;19.37;18.47;;;;;;;;;;5095854;28;20240;-72
2021/12/23 08:01:14;;;;;;;24.97;23.10;;;;;;;;;;5095879;28;20229;-72
2021/12/23 08:03:42;;;;;;;28.43;26.30;;;;;;;;;;5096395;28;20236;-72
2021/12/23 08:06:09;;;;;;;24.13;22.70;;;;;;;;;;5096073;28;20646;-72
2021/12/23 08:08:36;;;;;;;24.50;23.20;;;;;;;;;;5095630;28;20226;-72
2021/12/23 08:11:02;;;;;;;20.20;18.57;;;;;;;;;;5095922;28;20258;-71
2021/12/23 08:13:29;;;;;;;17.93;17.13;;;;;;;;;;5095937;28;20614;-72
2021/12/23 08:15:58;;;;;;;24.63;22.97;;;;;;;;;;5095555;28;20729;-73
2021/12/23 08:18:24;;;;;;;28.47;26.63;;;;;;;;;;5095452;28;20197;-74
2021/12/23 08:20:53;;;;;;;28.37;26.43;;;;;;;;;;5095458;28;20285;-72
2021/12/23 08:23:19;;;;;;;21.50;20.50;;;;;;;;;;5095267;28;20253;-72
2021/12/23 08:25:46;;;;;;;23.03;21.67;;;;;;;;;;5095436;28;20293;-72
2021/12/23 08:28:13;;;;;;;22.40;21.30;;;;;;;;;;5095517;28;20645;-72
2021/12/23 08:30:41;;;;;;;25.77;23.40;;;;;;;;;;5095260;28;20233;-72
2021/12/23 08:33:08;;;;;;;24.33;23.13;;;;;;;;;;5095308;28;20202;-72
2021/12/23 08:35:34;;;;;;;29.57;27.33;;;;;;;;;;5095458;28;20197;-72
2021/12/23 08:38:03;;;;;;;26.53;24.73;;;;;;;;;;5095151;28;20198;-72
2021/12/23 08:40:30;;;;;;;27.23;25.57;;;;;;;;;;5095033;28;20293;-72
2021/12/23 08:42:58;;;;;;;26.23;24.30;;;;;;;;;;5095049;28;20703;-71
2021/12/23 08:45:26;;;;;;;21.67;20.60;;;;;;;;;;5095245;28;20190;-71
2021/12/23 08:47:54;;;;;;;24.63;23.07;;;;;;;;;;5094974;28;20254;-71
2021/12/23 08:50:22;;;;;;;20.10;19.10;;;;;;;;;;5094386;28;20221;-71
2021/12/23 08:52:48;;;;;;;22.33;20.87;;;;;;;;;;5095091;28;20232;-71
2021/12/23 08:55:16;;;;;;;21.00;20.00;;;;;;;;;;5095120;28;20189;-72
2021/12/23 08:57:43;;;;;;;20.33;19.33;;;;;;;;;;5094721;28;20194;-71
2021/12/23 09:00:12;;;;;;;20.37;19.40;;;;;;;;;;5094685;28;20198;-71
2021/12/23 09:02:39;;;;;;;22.77;21.57;;;;;;;;;;5094931;28;20229;-72
2021/12/23 09:05:06;;;;;;;22.43;20.93;;;;;;;;;;5094932;28;20227;-72
2021/12/23 09:07:33;;;;;;;26.37;24.57;;;;;;;;;;5094886;28;20203;-72
2021/12/23 09:10:00;;;;;;;25.20;23.70;;;;;;;;;;5094474;28;20265;-72
2021/12/23 09:12:28;;;;;;;22.83;21.73;;;;;;;;;;5095284;28;20285;-72
2021/12/23 09:14:55;;;;;;;26.57;24.87;;;;;;;;;;5094425;28;20598;-72
2021/12/23 09:17:22;;;;;;;23.70;22.50;;;;;;;;;;5094691;28;20272;-72
2021/12/23 09:19:48;;;;;;;24.73;23.53;;;;;;;;;;5094321;28;20752;-73
2021/12/23 09:22:15;;;;;;;26.07;24.77;;;;;;;;;;5094076;28;20225;-73
2021/12/23 09:24:45;;;;;;;27.33;25.73;;;;;;;;;;5094271;28;20197;-74
2021/12/23 09:27:23;;;;;;;26.53;25.13;;;;;;;;;;5094131;28;20193;-75
2021/12/23 09:32:52;;;;;;;24.87;23.57;;;;;;;;;;5094846;28;20203;-75
2021/12/23 09:35:20;;;;;;;25.20;23.90;;;;;;;;;;5094246;28;20205;-76
2021/12/23 09:37:47;;;;;;;26.20;24.80;;;;;;;;;;5093987;28;20759;-77
2021/12/23 09:40:14;;;;;;;25.43;23.93;;;;;;;;;;5094319;28;20263;-77
2021/12/23 09:42:42;;;;;;;26.77;25.17;;;;;;;;;;5094246;28;20198;-78
2021/12/23 09:45:13;;;;;;;28.40;26.53;;;;;;;;;;5094146;28;20197;-77
2021/12/23 09:47:41;;;;;;;28.10;26.40;;;;;;;;;;5094085;28;20241;-78
2021/12/23 09:50:11;;;;;;;25.83;24.23;;;;;;;;;;5093745;28;20229;-77
2021/12/23 09:52:47;;;;;;;26.57;24.77;;;;;;;;;;5093790;28;20190;-76
2021/12/23 09:55:15;;;;;;;24.77;23.47;;;;;;;;;;5094307;28;20618;-79
2021/12/23 09:57:42;;;;;;;25.30;24.00;;;;;;;;;;5094264;28;20244;-79
2021/12/23 10:00:11;;;;;;;27.20;25.70;;;;;;;;;;5093948;28;20251;-79
2021/12/23 10:02:41;;;;;;;24.70;23.37;;;;;;;;;;5092806;28;20194;-79
2021/12/23 10:05:09;;;;;;;24.10;22.70;;;;;;;;;;5093606;28;20260;-79
2021/12/23 10:07:36;;;;;;;25.60;24.27;;;;;;;;;;5093574;28;20210;-80
2021/12/23 10:10:10;;;;;;;27.07;25.37;;;;;;;;;;5093304;28;20249;-78
2021/12/23 10:32:15;;;;;;;23.80;22.50;;;;;;;;;;5058801;28;20247;-79
2021/12/23 10:37:28;;;;;;;25.10;23.60;;;;;;;;;;5093569;28;20181;-80
2021/12/23 10:40:09;;;;;;;23.73;22.43;;;;;;;;;;5092885;28;20284;-81
2021/12/23 10:42:35;;;;;;;23.67;22.37;;;;;;;;;;5092818;28;20542;-80
2021/12/23 10:45:04;;;;;;;23.67;22.37;;;;;;;;;;5093084;28;20684;-79
2021/12/23 10:47:32;;;;;;;23.90;22.60;;;;;;;;;;5092696;28;20679;-79
2021/12/23 10:50:13;;;;;;;23.50;22.27;;;;;;;;;;5092625;28;20221;-80
2021/12/23 10:52:48;;;;;;;24.80;23.43;;;;;;;;;;5092969;28;20197;-80
2021/12/23 10:58:03;;;;;;;25.97;24.57;;;;;;;;;;5093009;28;20189;-79
2021/12/23 11:00:30;;;;;;;25.03;23.73;;;;;;;;;;5092584;28;20660;-80
2021/12/23 11:03:01;;;;;;;25.67;24.27;;;;;;;;;;5092462;28;20201;-80
2021/12/23 11:05:33;;;;;;;24.80;23.50;;;;;;;;;;5092768;28;20277;-79
2021/12/23 11:08:11;;;;;;;22.33;21.03;;;;;;;;;;5092418;28;20236;-80
2021/12/23 11:11:00;;;;;;;25.40;23.40;;;;;;;;;;5092369;28;20231;-79
2021/12/23 11:31:04;;;;;;;24.47;23.03;;;;;;;;;;5092182;28;20212;-80
2021/12/23 11:36:19;;;;;;;24.97;23.57;;;;;;;;;;5092736;28;20324;-81
2021/12/23 11:39:05;;;;;;;26.63;25.23;;;;;;;;;;5092081;28;20288;-81
2021/12/23 11:41:37;;;;;;;25.50;24.20;;;;;;;;;;5092323;28;20189;-81
2021/12/23 11:44:05;;;;;;;23.13;21.93;;;;;;;;;;5092413;28;20251;-81
2021/12/23 11:46:36;;;;;;;25.73;24.13;;;;;;;;;;5091936;28;20659;-81
2021/12/23 11:49:07;;;;;;;23.60;22.20;;;;;;;;;;5091913;28;20622;-81
2021/12/23 11:51:34;;;;;;;24.10;22.80;;;;;;;;;;5091927;28;20186;-79
2021/12/23 11:54:04;;;;;;;23.47;22.27;;;;;;;;;;5092295;28;20248;-80
2021/12/23 11:56:31;;;;;;;24.77;23.17;;;;;;;;;;5092133;28;20584;-80
2021/12/23 11:58:59;;;;;;;23.93;22.63;;;;;;;;;;5091883;28;20731;-81
2021/12/23 12:01:28;;;;;;;24.00;22.70;;;;;;;;;;5091910;28;20694;-81
2021/12/23 12:04:00;;;;;;;22.73;21.53;;;;;;;;;;5091809;28;20194;-80
2021/12/23 12:06:28;;;;;;;23.80;22.33;;;;;;;;;;5092144;28;20186;-80
2021/12/23 12:08:56;;;;;;;23.70;22.40;;;;;;;;;;5091993;28;20276;-80
2021/12/23 12:11:26;;;;;;;23.20;21.90;;;;;;;;;;5091745;28;20201;-80
2021/12/23 12:13:53;;;;;;;23.43;22.13;;;;;;;;;;5091704;28;20221;-81
2021/12/23 12:16:27;;;;;;;24.20;22.87;;;;;;;;;;5091721;28;20197;-80
2021/12/23 12:18:53;;;;;;;24.47;23.17;;;;;;;;;;5091650;28;20243;-81
2021/12/23 12:21:24;;;;;;;25.50;24.10;;;;;;;;;;5092009;28;20275;-81
2021/12/23 12:24:06;;;;;;;24.10;22.80;;;;;;;;;;5091517;28;20661;-80
2021/12/23 12:26:35;;;;;;;22.17;20.97;;;;;;;;;;5093685;28;20664;-81
2021/12/23 12:29:04;;;;;;;25.00;23.40;;;;;;;;;;5095399;28;20685;-81
2021/12/23 12:31:39;;;;;;;25.00;23.17;;;;;;;;;;5095649;28;20247;-81
2021/12/23 12:34:06;;;;;;;24.67;23.27;;;;;;;;;;5095322;28;20193;-81
2021/12/23 12:36:40;;;;;;;23.73;22.43;;;;;;;;;;5095206;28;20281;-81
2021/12/23 12:39:18;;;;;;;23.70;22.40;;;;;;;;;;5095202;28;20194;-81
2021/12/23 12:41:47;;;;;;;23.27;21.97;;;;;;;;;;5095133;28;20189;-81
2021/12/23 12:44:19;;;;;;;27.40;25.90;;;;;;;;;;5095407;28;20554;-80
2021/12/23 12:47:02;;;;;;;28.40;26.60;;;;;;;;;;5095114;28;20221;-81
2021/12/23 12:49:31;;;;;;;25.83;24.43;;;;;;;;;;5095230;28;20291;-81
2021/12/23 12:52:07;;;;;;;27.37;25.87;;;;;;;;;;5095315;28;20196;-81
2021/12/23 12:54:34;;;;;;;25.30;23.90;;;;;;;;;;5095728;28;20197;-81
2021/12/23 12:57:05;;;;;;;26.93;25.43;;;;;;;;;;5094852;28;20579;-81
2021/12/23 12:59:35;;;;;;;24.37;22.97;;;;;;;;;;5094827;28;20653;-81
2021/12/23 13:02:02;;;;;;;24.23;22.73;;;;;;;;;;5094762;28;20277;-82
2021/12/23 13:04:31;;;;;;;26.03;24.53;;;;;;;;;;5094981;28;20281;-81
2021/12/23 13:06:58;;;;;;;26.30;24.70;;;;;;;;;;5094629;28;20205;-81
2021/12/23 13:09:29;;;;;;;25.93;24.53;;;;;;;;;;5094824;28;20198;-82
2021/12/23 13:11:58;;;;;;;27.73;26.23;;;;;;;;;;5094901;28;20664;-81
2021/12/23 13:14:46;;;;;;;26.17;24.70;;;;;;;;;;5094868;28;20198;-81
2021/12/23 13:17:13;;;;;;;26.07;24.67;;;;;;;;;;5094754;28;20196;-83
2021/12/23 13:19:42;;;;;;;26.83;25.33;;;;;;;;;;5094456;28;20243;-81
2021/12/23 13:22:11;;;;;;;25.60;24.20;;;;;;;;;;5094469;28;20229;-81
2021/12/23 13:24:38;;;;;;;24.53;23.13;;;;;;;;;;5094716;28;20192;-80
2021/12/23 13:27:05;;;;;;;25.67;24.27;;;;;;;;;;5094563;28;20276;-80
2021/12/23 13:29:35;;;;;;;25.50;24.10;;;;;;;;;;5094458;28;20282;-80
2021/12/23 13:32:02;;;;;;;25.63;24.13;;;;;;;;;;5094199;28;20227;-80
2021/12/23 13:34:30;;;;;;;24.50;23.10;;;;;;;;;;5094429;28;20197;-79
2021/12/23 13:36:57;;;;;;;25.17;23.77;;;;;;;;;;5093889;28;20229;-79
2021/12/23 13:39:25;;;;;;;25.83;24.43;;;;;;;;;;5094002;28;20284;-80
2021/12/23 13:41:53;;;;;;;23.40;22.00;;;;;;;;;;5094302;28;20610;-79
2021/12/23 13:44:21;;;;;;;24.43;23.03;;;;;;;;;;5094182;28;20198;-79
2021/12/23 13:46:57;;;;;;;24.53;23.13;;;;;;;;;;5094169;28;20259;-80
2021/12/23 13:49:31;;;;;;;23.53;22.13;;;;;;;;;;5094027;28;20181;-80
2021/12/23 13:51:57;;;;;;;24.50;22.80;;;;;;;;;;5094126;28;20726;-79
2021/12/23 13:54:25;;;;;;;25.40;23.77;;;;;;;;;;5093668;28;20251;-80
2021/12/23 13:56:52;;;;;;;24.57;23.17;;;;;;;;;;5093626;28;20639;-79
2021/12/23 13:59:21;;;;;;;25.93;24.53;;;;;;;;;;5093659;28;20284;-79
2021/12/23 14:01:55;;;;;;;24.77;23.37;;;;;;;;;;5093614;28;20248;-80
2021/12/23 14:04:30;;;;;;;23.23;21.93;;;;;;;;;;5093528;28;20193;-80
2021/12/23 14:06:57;;;;;;;22.57;21.37;;;;;;;;;;5093464;28;20189;-80
2021/12/23 14:09:29;;;;;;;24.93;23.57;;;;;;;;;;5093795;28;20360;-79
2021/12/23 14:11:56;;;;;;;24.83;23.43;;;;;;;;;;5093395;28;20699;-79
2021/12/23 14:14:23;;;;;;;27.60;26.10;;;;;;;;;;5093608;28;20276;-79
2021/12/23 14:16:49;;;;;;;26.37;24.93;;;;;;;;;;5093220;28;20237;-80
2021/12/23 14:19:23;;;;;;;27.03;25.53;;;;;;;;;;5093578;28;20190;-80
2021/12/23 14:24:35;;;;;;;26.00;24.50;;;;;;;;;;5093535;28;20197;-79
2021/12/23 14:27:03;;;;;;;25.90;24.43;;;;;;;;;;5093404;28;20281;-79
2021/12/23 14:29:32;;;;;;;27.30;25.50;;;;;;;;;;5093085;28;20233;-80
2021/12/23 14:31:58;;;;;;;26.53;24.93;;;;;;;;;;5093367;28;20240;-80
2021/12/23 14:34:28;;;;;;;26.97;25.37;;;;;;;;;;5092934;28;20281;-79
2021/12/23 14:36:59;;;;;;;23.87;22.50;;;;;;;;;;5093206;28;20205;-80
2021/12/23 14:39:26;;;;;;;26.97;25.27;;;;;;;;;;5092906;28;20190;-80
2021/12/23 14:41:55;;;;;;;26.20;24.80;;;;;;;;;;5093108;28;20198;-80
2021/12/23 14:44:23;;;;;;;24.97;23.67;;;;;;;;;;5093066;28;20198;-80
2021/12/23 14:46:51;;;;;;;23.30;22.03;;;;;;;;;;5092730;28;20648;-80
2021/12/23 14:52:27;;;;;;;28.23;26.63;;;;;;;;;;5092576;28;20563;-80
2021/12/23 14:54:55;;;;;;;25.73;24.33;;;;;;;;;;5092910;28;20194;-80
2021/12/23 14:57:24;;;;;;;24.73;23.43;;;;;;;;;;5092870;28;20267;-80
2021/12/23 14:59:52;;;;;;;23.93;22.70;;;;;;;;;;5092482;28;20233;-78
2021/12/23 15:02:20;;;;;;;23.47;22.27;;;;;;;;;;5092799;28;20276;-79
2021/12/23 15:04:58;;;;;;;24.27;22.97;;;;;;;;;;5092420;28;20281;-78
2021/12/23 15:07:26;;;;;;;27.47;25.80;;;;;;;;;;5092718;28;20193;-77
2021/12/23 15:09:57;;;;;;;22.97;21.67;;;;;;;;;;5092227;28;20229;-77
2021/12/23 15:12:25;;;;;;;21.27;20.07;;;;;;;;;;5092375;28;20193;-77
2021/12/23 15:14:53;;;;;;;23.53;22.13;;;;;;;;;;5092268;28;20194;-77
2021/12/23 15:17:26;;;;;;;21.50;20.23;;;;;;;;;;5092572;28;20221;-77
2021/12/23 15:19:54;;;;;;;21.30;20.10;;;;;;;;;;5092234;28;20273;-77